Time;durP1;ratioP1;P1;durP2;ratioP2;P2;SDS_P1;SDS_P2;PMS_P1;PMS_P2;Temp;Humidity;BMP_temperature;BMP_pressure;BME280_temperature;BME280_humidity;BME280_pressure;Samples;Min_cycle;Max_cycle;Signal;HPM_P1;HPM_P2
2020/12/08 00:02:02;;;;;;;7.40;2.90;;;14.60;67.40;;;;;;5010879;28;20550;-68
2020/12/08 00:04:27;;;;;;;9.50;3.88;;;14.70;67.30;;;;;;5010362;28;20062;-67
2020/12/08 00:06:53;;;;;;;9.30;3.53;;;14.60;67.00;;;;;;5009640;28;20061;-65
2020/12/08 00:09:18;;;;;;;7.10;3.40;;;14.70;66.80;;;;;;5009687;28;20360;-65
2020/12/08 00:11:46;;;;;;;7.63;3.17;;;14.70;66.50;;;;;;5011197;28;20036;-65
2020/12/08 00:14:12;;;;;;;7.55;3.35;;;14.70;66.40;;;;;;5009499;28;20033;-68
2020/12/08 00:16:39;;;;;;;7.28;3.20;;;14.60;66.40;;;;;;5010962;28;20033;-65
2020/12/08 00:19:05;;;;;;;8.35;3.50;;;14.60;66.30;;;;;;5009542;28;20056;-67
2020/12/08 00:21:31;;;;;;;7.20;3.90;;;14.50;66.50;;;;;;5010773;28;20079;-66
2020/12/08 00:23:56;;;;;;;8.07;4.35;;;14.50;66.40;;;;;;5010545;28;20471;-67
2020/12/08 00:26:22;;;;;;;7.10;4.05;;;14.50;66.50;;;;;;5010765;28;20042;-65
2020/12/08 00:28:47;;;;;;;8.38;3.95;;;14.50;66.20;;;;;;5008846;28;20049;-62
2020/12/08 00:31:13;;;;;;;7.72;4.20;;;14.50;66.20;;;;;;5010729;28;20025;-65
2020/12/08 00:33:38;;;;;;;7.43;3.95;;;14.40;66.50;;;;;;5010891;28;20030;-69
2020/12/08 00:36:04;;;;;;;8.20;4.18;;;14.40;66.50;;;;;;5010843;28;20072;-65
2020/12/08 00:38:29;;;;;;;12.20;3.88;;;14.40;66.50;;;;;;5010888;28;20550;-65
2020/12/08 00:40:55;;;;;;;9.68;3.90;;;14.40;66.80;;;;;;5011386;28;20026;-65
2020/12/08 00:43:21;;;;;;;9.63;3.72;;;14.40;66.90;;;;;;5010891;28;20549;-66
2020/12/08 00:45:47;;;;;;;8.35;3.67;;;14.40;67.00;;;;;;5010685;28;20042;-62
2020/12/08 00:48:12;;;;;;;6.70;3.15;;;14.30;67.00;;;;;;5010056;28;20025;-65
2020/12/08 00:50:38;;;;;;;7.65;3.33;;;14.40;67.30;;;;;;5010599;28;20506;-65
2020/12/08 00:53:04;;;;;;;8.10;3.97;;;14.40;67.30;;;;;;5010677;28;20026;-65
2020/12/08 00:55:29;;;;;;;6.95;3.42;;;14.30;67.10;;;;;;5009963;28;20027;-66
2020/12/08 00:57:55;;;;;;;7.35;3.70;;;14.30;67.30;;;;;;5010264;28;20453;-67
2020/12/08 01:00:20;;;;;;;7.93;3.47;;;14.30;67.40;;;;;;5010149;28;20033;-64
2020/12/08 01:02:47;;;;;;;9.52;3.88;;;14.30;67.50;;;;;;5010489;28;20105;-65
2020/12/08 01:05:13;;;;;;;10.20;4.05;;;14.30;67.40;;;;;;5010418;28;20057;-65
2020/12/08 01:07:39;;;;;;;7.93;3.50;;;14.40;67.20;;;;;;5014199;28;20490;-64
2020/12/08 01:10:06;;;;;;;6.18;3.50;;;14.40;66.80;;;;;;5013866;28;20032;-66
2020/12/08 01:12:31;;;;;;;7.53;3.97;;;14.40;66.90;;;;;;5010572;28;20028;-65
2020/12/08 01:14:57;;;;;;;7.25;3.33;;;14.30;66.80;;;;;;5008985;28;20108;-65
2020/12/08 01:17:22;;;;;;;7.43;4.07;;;14.40;66.90;;;;;;5007946;28;20029;-65
2020/12/08 01:19:48;;;;;;;7.20;3.70;;;14.30;66.90;;;;;;5009118;28;20029;-67
2020/12/08 01:22:13;;;;;;;8.05;3.88;;;14.30;66.70;;;;;;5010189;28;20045;-65
2020/12/08 01:24:39;;;;;;;7.25;4.20;;;14.30;66.80;;;;;;5009109;28;20149;-65
2020/12/08 01:27:04;;;;;;;9.35;3.88;;;14.30;66.80;;;;;;5009824;28;20014;-65
2020/12/08 01:29:30;;;;;;;6.82;3.60;;;14.30;66.90;;;;;;5009734;28;20026;-65
2020/12/08 01:31:55;;;;;;;7.63;3.83;;;14.20;66.90;;;;;;5009759;28;20026;-68
2020/12/08 01:34:21;;;;;;;9.13;3.72;;;14.30;67.00;;;;;;5009124;28;20096;-65
2020/12/08 01:36:50;;;;;;;7.55;4.13;;;14.30;67.30;;;;;;5009825;28;20040;-68
2020/12/08 01:39:15;;;;;;;6.93;3.42;;;14.30;67.30;;;;;;5008640;28;20052;-68
2020/12/08 01:41:41;;;;;;;6.82;3.60;;;14.30;67.50;;;;;;5010268;28;20495;-66
2020/12/08 01:44:06;;;;;;;9.07;3.67;;;14.30;67.60;;;;;;5009689;28;20044;-65
2020/12/08 01:46:35;;;;;;;6.72;3.70;;;14.30;67.50;;;;;;5008545;28;20037;-66
2020/12/08 01:49:01;;;;;;;7.38;3.90;;;14.20;67.60;;;;;;5010093;28;20107;-66
2020/12/08 01:51:27;;;;;;;7.25;3.72;;;14.30;67.70;;;;;;5010012;28;20105;-65
2020/12/08 01:53:52;;;;;;;7.82;3.70;;;14.20;67.60;;;;;;5008875;28;20034;-65
2020/12/08 01:56:19;;;;;;;7.18;3.50;;;14.20;67.60;;;;;;5009197;28;20044;-65
2020/12/08 01:58:44;;;;;;;8.73;4.32;;;14.20;67.70;;;;;;5008446;28;20076;-65
2020/12/08 02:01:12;;;;;;;7.13;3.35;;;14.20;67.70;;;;;;5010086;28;20511;-67
2020/12/08 02:03:38;;;;;;;7.38;3.75;;;14.20;67.80;;;;;;5006592;28;20026;-64
2020/12/08 02:06:04;;;;;;;7.18;4.00;;;14.20;67.70;;;;;;5007339;28;20032;-67
2020/12/08 02:08:31;;;;;;;7.20;3.72;;;14.10;67.50;;;;;;5008647;28;20026;-65
2020/12/08 02:10:57;;;;;;;6.97;4.20;;;14.10;67.50;;;;;;5011559;28;20051;-65
2020/12/08 02:13:23;;;;;;;8.07;4.40;;;14.10;67.40;;;;;;5011923;28;20026;-65
2020/12/08 02:15:49;;;;;;;6.40;3.35;;;14.10;67.50;;;;;;5013533;28;20064;-65
2020/12/08 02:18:15;;;;;;;6.57;3.45;;;14.10;67.50;;;;;;5012148;28;20038;-65
2020/12/08 02:20:44;;;;;;;7.75;3.67;;;14.20;67.30;;;;;;5012530;28;20029;-65
2020/12/08 02:23:10;;;;;;;6.68;3.80;;;14.20;67.60;;;;;;5012327;28;20398;-66
2020/12/08 02:25:36;;;;;;;7.97;4.45;;;14.20;66.80;;;;;;5013528;28;20113;-62
2020/12/08 02:28:03;;;;;;;7.13;3.58;;;14.20;66.70;;;;;;5012265;28;20113;-67
2020/12/08 02:30:28;;;;;;;7.00;3.97;;;14.30;66.70;;;;;;5013346;28;20061;-68
2020/12/08 02:32:54;;;;;;;8.23;4.20;;;14.20;66.80;;;;;;5013011;28;20408;-66
2020/12/08 02:35:19;;;;;;;7.38;3.90;;;14.20;66.90;;;;;;4993768;28;20101;-66
2020/12/08 02:37:45;;;;;;;6.75;3.80;;;14.20;66.90;;;;;;5006886;28;20089;-66
2020/12/08 02:40:10;;;;;;;8.88;3.97;;;14.20;66.90;;;;;;5012853;28;20030;-68
2020/12/08 02:42:36;;;;;;;7.30;4.13;;;14.20;66.80;;;;;;5013163;28;20030;-63
2020/12/08 02:45:02;;;;;;;7.35;3.95;;;14.20;66.80;;;;;;5012912;28;20030;-65
2020/12/08 02:47:28;;;;;;;8.18;4.13;;;14.20;66.80;;;;;;5011385;28;20034;-65
2020/12/08 02:49:56;;;;;;;8.13;3.90;;;14.10;66.80;;;;;;5001272;28;20056;-65
2020/12/08 02:52:22;;;;;;;6.93;4.05;;;14.10;66.80;;;;;;5013006;28;20110;-63
2020/12/08 02:54:48;;;;;;;6.35;3.83;;;14.10;66.70;;;;;;5012510;28;20065;-65
2020/12/08 02:57:13;;;;;;;8.55;4.20;;;14.10;66.80;;;;;;5011366;28;20425;-66
2020/12/08 02:59:39;;;;;;;7.68;4.72;;;14.10;66.70;;;;;;5012882;28;20110;-67
2020/12/08 03:02:04;;;;;;;8.25;4.18;;;14.10;66.70;;;;;;5010757;28;20522;-65
2020/12/08 03:04:30;;;;;;;7.25;4.22;;;14.10;66.60;;;;;;5011104;28;20037;-65
2020/12/08 03:06:55;;;;;;;6.97;4.07;;;14.10;66.70;;;;;;5011149;28;20512;-65
2020/12/08 03:09:21;;;;;;;8.95;4.43;;;14.10;66.80;;;;;;5011072;28;20039;-65
2020/12/08 03:11:46;;;;;;;6.75;4.10;;;14.10;66.80;;;;;;5008887;28;20080;-65
2020/12/08 03:14:12;;;;;;;9.77;4.30;;;14.10;66.80;;;;;;5009741;28;20048;-67
2020/12/08 03:16:38;;;;;;;8.35;4.20;;;14.10;66.80;;;;;;5011730;28;20120;-64
2020/12/08 03:19:03;;;;;;;6.40;3.80;;;14.20;66.90;;;;;;5011816;28;20372;-66
2020/12/08 03:21:36;;;;;;;6.70;4.03;;;14.20;66.50;;;;;;5009466;28;20505;-68
2020/12/08 03:24:02;;;;;;;7.20;3.83;;;14.20;66.40;;;;;;5011391;28;20109;-65
2020/12/08 03:26:28;;;;;;;6.82;4.05;;;14.20;66.10;;;;;;5010282;28;20104;-65
2020/12/08 03:28:54;;;;;;;6.88;4.18;;;14.20;66.00;;;;;;5009725;28;20172;-65
2020/12/08 03:31:20;;;;;;;7.15;3.90;;;14.20;65.90;;;;;;5011266;28;20113;-63
2020/12/08 03:33:46;;;;;;;9.65;3.78;;;14.20;66.00;;;;;;5010414;28;20029;-66
2020/12/08 03:36:12;;;;;;;8.88;4.00;;;14.20;66.20;;;;;;5009824;28;20487;-68
2020/12/08 03:38:40;;;;;;;7.45;3.92;;;14.30;66.30;;;;;;5011804;28;20026;-65
2020/12/08 03:41:06;;;;;;;7.88;3.90;;;14.30;66.40;;;;;;5011580;28;20048;-65
2020/12/08 03:43:32;;;;;;;7.28;4.30;;;14.30;66.40;;;;;;5011268;28;20022;-65
2020/12/08 03:45:57;;;;;;;8.25;4.47;;;14.30;66.50;;;;;;5011160;28;20060;-68
2020/12/08 03:48:23;;;;;;;8.18;4.50;;;14.30;66.50;;;;;;5010832;28;20092;-63
2020/12/08 03:50:48;;;;;;;6.93;4.22;;;14.30;66.50;;;;;;5011280;28;20037;-65
2020/12/08 03:53:14;;;;;;;9.43;3.97;;;14.30;66.60;;;;;;5011189;28;20076;-66
2020/12/08 03:55:41;;;;;;;7.65;4.30;;;14.20;66.50;;;;;;5011509;28;20030;-64
2020/12/08 03:58:07;;;;;;;6.72;3.88;;;14.20;66.50;;;;;;5010967;28;20064;-65
2020/12/08 04:00:32;;;;;;;7.47;4.13;;;14.20;66.50;;;;;;5010922;28;20030;-65
2020/12/08 04:02:58;;;;;;;10.65;4.20;;;14.20;66.50;;;;;;5010509;28;20076;-65
2020/12/08 04:05:24;;;;;;;10.15;4.50;;;14.20;66.50;;;;;;5011686;28;20033;-69
2020/12/08 04:07:50;;;;;;;7.53;4.43;;;14.20;66.40;;;;;;5010946;28;20032;-64
2020/12/08 04:10:15;;;;;;;7.60;4.50;;;14.20;66.40;;;;;;5009958;28;20033;-65
2020/12/08 04:12:41;;;;;;;7.25;4.15;;;14.20;66.40;;;;;;5010932;28;20026;-63
2020/12/08 04:15:06;;;;;;;6.75;4.20;;;14.20;66.40;;;;;;5009699;28;20502;-66
2020/12/08 04:17:32;;;;;;;7.35;4.20;;;14.20;66.30;;;;;;5010942;28;20038;-64
2020/12/08 04:19:57;;;;;;;8.75;4.97;;;14.10;66.30;;;;;;5010931;28;20030;-64
2020/12/08 04:22:22;;;;;;;8.15;4.40;;;14.20;66.30;;;;;;5010723;28;20025;-65
2020/12/08 04:24:48;;;;;;;6.10;3.60;;;14.10;66.20;;;;;;5010582;28;20037;-67
2020/12/08 04:27:13;;;;;;;8.18;4.10;;;14.20;66.20;;;;;;5010529;28;20033;-65
2020/12/08 04:29:39;;;;;;;7.28;4.13;;;14.10;66.10;;;;;;5009601;28;20165;-64
2020/12/08 04:32:05;;;;;;;8.98;3.97;;;14.10;66.10;;;;;;5009557;28;20026;-66
2020/12/08 04:34:31;;;;;;;7.15;3.83;;;14.10;66.20;;;;;;5010494;28;20030;-69
2020/12/08 04:37:00;;;;;;;7.97;3.92;;;14.20;66.30;;;;;;5009001;28;20038;-65
2020/12/08 04:39:26;;;;;;;7.28;4.47;;;14.20;66.20;;;;;;5008680;28;20056;-66
2020/12/08 04:41:54;;;;;;;7.38;3.70;;;14.20;66.60;;;;;;5008563;28;20527;-66
2020/12/08 04:44:20;;;;;;;7.80;4.43;;;14.20;65.90;;;;;;5010420;28;20113;-65
2020/12/08 04:46:53;;;;;;;8.02;3.88;;;14.30;65.80;;;;;;5008107;28;20435;-65
2020/12/08 04:49:19;;;;;;;6.95;3.95;;;14.30;65.70;;;;;;5010272;28;20092;-65
2020/12/08 04:51:45;;;;;;;6.10;3.50;;;14.30;65.60;;;;;;5009021;28;20033;-65
2020/12/08 04:54:10;;;;;;;8.32;3.60;;;14.30;65.50;;;;;;5009809;28;20030;-67
2020/12/08 04:56:36;;;;;;;6.55;3.58;;;14.30;65.60;;;;;;5009973;28;20053;-66
2020/12/08 04:59:01;;;;;;;6.47;3.40;;;14.30;65.60;;;;;;5010437;28;20033;-66
2020/12/08 05:01:28;;;;;;;7.35;3.65;;;14.30;65.70;;;;;;5004919;28;20037;-67
2020/12/08 05:04:00;;;;;;;7.07;3.65;;;14.30;65.70;;;;;;5008598;28;20030;-65
2020/12/08 05:06:28;;;;;;;6.53;3.42;;;14.20;65.60;;;;;;5008243;28;20181;-65
2020/12/08 05:09:20;;;;;;;11.45;7.07;;;14.20;65.60;;;;;;5009125;28;20429;-68
2020/12/08 05:11:46;;;;;;;45.15;29.88;;;14.20;65.70;;;;;;5002515;28;20118;-66
2020/12/08 05:14:12;;;;;;;28.95;19.60;;;14.20;65.90;;;;;;5002193;28;20108;-65
2020/12/08 05:16:37;;;;;;;15.55;11.55;;;14.20;65.90;;;;;;5003071;28;20034;-66
2020/12/08 05:19:07;;;;;;;15.75;9.18;;;14.20;65.90;;;;;;5002324;28;20122;-69
2020/12/08 05:21:33;;;;;;;12.73;7.97;;;14.20;65.90;;;;;;5002380;28;20037;-68
2020/12/08 05:23:59;;;;;;;15.32;7.85;;;14.20;65.80;;;;;;5002312;28;20030;-68
2020/12/08 05:26:25;;;;;;;10.65;7.13;;;14.30;65.80;;;;;;5004373;28;20076;-68
2020/12/08 05:28:59;;;;;;;12.32;7.00;;;14.40;65.70;;;;;;5001326;28;20024;-70
2020/12/08 05:31:26;;;;;;;11.18;7.00;;;14.40;65.70;;;;;;5002089;28;20053;-67
2020/12/08 05:33:59;;;;;;;11.38;6.30;;;14.50;65.80;;;;;;4996424;28;20035;-64
2020/12/08 05:36:27;;;;;;;12.30;6.80;;;14.40;65.60;;;;;;4992462;28;20659;-63
2020/12/08 05:38:59;;;;;;;9.02;5.85;;;14.60;65.70;;;;;;4992755;28;20060;-67
2020/12/08 05:41:29;;;;;;;11.32;6.57;;;14.60;65.80;;;;;;5000461;28;20189;-66
2020/12/08 05:44:03;;;;;;;9.90;5.63;;;14.70;66.10;;;;;;4989313;28;20410;-62
2020/12/08 05:46:42;;;;;;;9.45;5.57;;;14.70;66.30;;;;;;5006626;28;20029;-67
2020/12/08 05:49:13;;;;;;;9.57;5.57;;;14.80;66.30;;;;;;5005557;28;20030;-62
2020/12/08 05:51:44;;;;;;;12.77;5.65;;;14.80;66.40;;;;;;5005898;28;20129;-65
2020/12/08 05:54:21;;;;;;;9.40;5.35;;;14.90;66.50;;;;;;5006450;28;20057;-70
2020/12/08 05:56:47;;;;;;;13.48;5.78;;;14.90;66.80;;;;;;5006614;28;20084;-64
2020/12/08 05:59:27;;;;;;;13.60;5.97;;;14.90;66.80;;;;;;5006169;28;20129;-66
2020/12/08 06:01:52;;;;;;;18.17;8.93;;;15.00;67.00;;;;;;5007432;28;20113;-67
2020/12/08 06:04:18;;;;;;;12.75;6.07;;;15.00;67.00;;;;;;5006338;28;20413;-68
2020/12/08 06:06:50;;;;;;;17.60;5.75;;;15.00;67.10;;;;;;5002098;28;20025;-69
2020/12/08 06:09:22;;;;;;;15.38;5.10;;;15.10;66.90;;;;;;4991734;28;20487;-66
2020/12/08 06:11:48;;;;;;;18.48;5.45;;;15.10;66.70;;;;;;5006171;28;20026;-68
2020/12/08 06:14:14;;;;;;;20.60;5.88;;;15.20;66.90;;;;;;5006628;28;20498;-64
2020/12/08 06:16:39;;;;;;;20.88;5.95;;;15.30;66.80;;;;;;5002675;28;20045;-66
2020/12/08 06:19:05;;;;;;;21.27;5.65;;;15.30;66.40;;;;;;5005732;28;20395;-64
2020/12/08 06:21:30;;;;;;;24.23;5.85;;;15.50;66.50;;;;;;5006958;28;20457;-66
2020/12/08 06:23:58;;;;;;;15.75;5.28;;;15.50;66.60;;;;;;5000151;28;20034;-64
2020/12/08 06:26:28;;;;;;;26.98;5.57;;;15.60;66.50;;;;;;5004599;28;20482;-66
2020/12/08 06:28:55;;;;;;;16.58;5.10;;;15.60;66.50;;;;;;5006711;28;20033;-66
2020/12/08 06:31:21;;;;;;;18.92;5.65;;;15.70;67.00;;;;;;5005911;28;20033;-65
2020/12/08 06:33:54;;;;;;;20.63;6.47;;;15.70;67.60;;;;;;5005307;28;20458;-69
2020/12/08 06:36:26;;;;;;;15.60;5.30;;;15.70;66.80;;;;;;5004995;28;20030;-64
2020/12/08 06:39:05;;;;;;;22.85;6.57;;;15.70;65.90;;;;;;5004616;28;20247;-61
2020/12/08 06:41:41;;;;;;;16.92;5.00;;;15.70;65.90;;;;;;4999685;28;20018;-61
2020/12/08 06:44:20;;;;;;;16.90;4.78;;;15.80;66.20;;;;;;5006629;28;20514;-60
2020/12/08 06:46:53;;;;;;;16.42;4.70;;;15.80;66.30;;;;;;5005470;28;20044;-61
2020/12/08 06:49:18;;;;;;;12.10;4.78;;;15.80;66.20;;;;;;5006762;28;20514;-62
2020/12/08 06:51:44;;;;;;;10.38;4.30;;;15.80;66.10;;;;;;5005141;28;20026;-62
2020/12/08 06:54:14;;;;;;;15.48;4.78;;;15.90;66.00;;;;;;5005104;28;20030;-61
2020/12/08 06:56:39;;;;;;;15.25;4.95;;;15.90;65.70;;;;;;5001751;28;20065;-62
2020/12/08 06:59:05;;;;;;;16.17;4.82;;;15.90;65.40;;;;;;5006107;28;20056;-62
2020/12/08 07:01:30;;;;;;;13.57;4.20;;;15.90;65.30;;;;;;5004841;28;20103;-61
2020/12/08 07:03:56;;;;;;;11.93;4.25;;;15.90;65.30;;;;;;5002094;28;20507;-62
2020/12/08 07:06:22;;;;;;;13.43;5.20;;;15.90;65.10;;;;;;5005622;28;20205;-61
2020/12/08 07:08:49;;;;;;;12.40;4.80;;;16.00;65.10;;;;;;5004032;28;20030;-62
2020/12/08 07:11:21;;;;;;;9.75;4.40;;;16.00;65.20;;;;;;5005463;28;20479;-61
2020/12/08 07:14:01;;;;;;;10.98;4.75;;;15.90;65.30;;;;;;5003476;28;20376;-62
2020/12/08 07:16:28;;;;;;;12.40;4.20;;;15.90;65.30;;;;;;5004228;28;20034;-61
2020/12/08 07:18:54;;;;;;;10.95;4.43;;;15.90;65.40;;;;;;5006008;28;20386;-61
2020/12/08 07:21:21;;;;;;;9.38;3.85;;;15.90;65.30;;;;;;5006075;28;20104;-61
2020/12/08 07:23:54;;;;;;;8.45;4.40;;;15.80;65.10;;;;;;5005960;28;20447;-61
2020/12/08 07:26:25;;;;;;;8.23;3.90;;;15.80;65.20;;;;;;5005038;28;20176;-61
2020/12/08 07:28:54;;;;;;;9.25;4.30;;;15.80;65.20;;;;;;5004077;28;20030;-60
2020/12/08 07:31:29;;;;;;;9.90;3.97;;;15.80;65.30;;;;;;5005479;28;20061;-61
2020/12/08 07:33:55;;;;;;;9.75;4.10;;;15.80;65.30;;;;;;5005628;28;20034;-62
2020/12/08 07:36:29;;;;;;;8.60;3.92;;;15.70;65.30;;;;;;5004367;28;20037;-61
2020/12/08 07:38:57;;;;;;;8.90;3.70;;;15.70;65.30;;;;;;5004188;28;20029;-62
2020/12/08 07:41:24;;;;;;;8.68;3.60;;;15.70;65.20;;;;;;5005883;28;20032;-61
2020/12/08 07:43:51;;;;;;;7.93;3.75;;;15.70;65.20;;;;;;5005836;28;20030;-61
2020/12/08 07:46:28;;;;;;;9.05;3.90;;;15.70;65.20;;;;;;5005513;28;20026;-61
2020/12/08 07:49:04;;;;;;;8.05;3.72;;;15.70;65.20;;;;;;5004584;28;20438;-61
2020/12/08 07:51:30;;;;;;;7.20;3.50;;;15.60;65.00;;;;;;5005648;28;20345;-62
2020/12/08 07:53:56;;;;;;;6.65;3.55;;;15.60;65.10;;;;;;5003916;28;20049;-61
2020/12/08 07:56:26;;;;;;;7.00;3.50;;;15.60;65.10;;;;;;5005326;28;20053;-62
2020/12/08 07:58:51;;;;;;;6.93;3.45;;;15.60;65.00;;;;;;5003864;28;20088;-62
2020/12/08 08:01:17;;;;;;;9.25;3.35;;;15.60;65.00;;;;;;5005288;28;20030;-62
2020/12/08 08:03:42;;;;;;;7.80;4.15;;;15.60;64.90;;;;;;5002379;28;20383;-61
2020/12/08 08:06:17;;;;;;;6.28;3.58;;;15.50;64.80;;;;;;5001872;28;20046;-62
2020/12/08 08:08:43;;;;;;;6.82;3.67;;;15.50;64.80;;;;;;5005070;28;20484;-61
2020/12/08 08:11:09;;;;;;;7.28;3.75;;;15.50;64.80;;;;;;5002226;28;20034;-62
2020/12/08 08:13:35;;;;;;;6.95;3.65;;;15.60;64.90;;;;;;4998935;28;20386;-60
2020/12/08 08:16:00;;;;;;;8.55;3.72;;;15.60;64.90;;;;;;5009400;28;20104;-61
2020/12/08 08:18:26;;;;;;;8.20;3.50;;;15.50;65.70;;;;;;4998277;28;20080;-62
2020/12/08 08:20:51;;;;;;;7.45;3.70;;;15.50;65.40;;;;;;4993888;28;20030;-62
2020/12/08 08:23:17;;;;;;;6.80;3.60;;;15.50;65.40;;;;;;4993491;28;20037;-62
2020/12/08 08:25:42;;;;;;;7.50;3.63;;;15.50;65.50;;;;;;4989692;28;20031;-62
2020/12/08 08:28:08;;;;;;;8.07;3.45;;;15.50;65.50;;;;;;4991523;28;20034;-61
2020/12/08 08:30:34;;;;;;;7.40;3.70;;;15.50;65.50;;;;;;5000156;28;20022;-61
2020/12/08 08:32:59;;;;;;;6.43;3.42;;;15.50;65.50;;;;;;4995830;28;20030;-61
2020/12/08 08:35:27;;;;;;;6.15;3.28;;;15.50;65.70;;;;;;4994478;28;20526;-61
2020/12/08 08:37:57;;;;;;;9.13;3.78;;;15.50;65.70;;;;;;4995547;28;20091;-62
2020/12/08 08:40:22;;;;;;;6.80;3.08;;;15.50;65.20;;;;;;4995761;28;20033;-61
2020/12/08 08:42:48;;;;;;;8.80;3.47;;;15.50;65.50;;;;;;4994390;28;20034;-61
2020/12/08 08:45:14;;;;;;;7.63;3.53;;;15.50;65.50;;;;;;4995184;28;20030;-62
2020/12/08 08:47:39;;;;;;;7.60;3.58;;;15.50;65.40;;;;;;4987290;28;20522;-61
2020/12/08 08:50:05;;;;;;;7.10;3.58;;;15.50;65.30;;;;;;5004677;28;20029;-62
2020/12/08 08:52:31;;;;;;;14.80;8.25;;;15.50;65.30;;;;;;5004867;28;20030;-62
2020/12/08 08:54:56;;;;;;;11.10;6.88;;;15.50;65.30;;;;;;5004161;28;20026;-63
2020/12/08 08:57:22;;;;;;;11.98;6.32;;;15.50;65.30;;;;;;5003755;28;20096;-61
2020/12/08 08:59:47;;;;;;;9.73;5.28;;;15.50;65.40;;;;;;5004117;28;20240;-61
2020/12/08 09:02:13;;;;;;;9.00;4.68;;;15.40;65.30;;;;;;5004523;28;20063;-62
2020/12/08 09:04:39;;;;;;;7.25;4.32;;;15.40;65.20;;;;;;5002266;28;20120;-61
2020/12/08 09:07:04;;;;;;;8.57;4.22;;;15.40;65.00;;;;;;5003192;28;20105;-62
2020/12/08 09:09:30;;;;;;;8.25;4.10;;;15.40;64.80;;;;;;5002377;28;20037;-61
2020/12/08 09:11:56;;;;;;;8.10;4.45;;;15.40;64.80;;;;;;5004625;28;20033;-61
2020/12/08 09:14:21;;;;;;;7.97;4.10;;;15.40;64.70;;;;;;5003941;28;20026;-61
2020/12/08 09:16:47;;;;;;;6.95;3.53;;;15.40;64.60;;;;;;5001965;28;20095;-61
2020/12/08 09:19:12;;;;;;;6.07;3.67;;;15.40;64.50;;;;;;5001808;28;20108;-61
2020/12/08 09:21:38;;;;;;;8.60;3.85;;;15.40;64.50;;;;;;5004388;28;20419;-62
2020/12/08 09:24:04;;;;;;;6.38;3.75;;;15.40;64.50;;;;;;5004290;28;20487;-62
2020/12/08 09:26:29;;;;;;;7.97;3.70;;;15.40;64.50;;;;;;4997011;28;20026;-61
2020/12/08 09:28:55;;;;;;;6.45;3.63;;;15.40;64.60;;;;;;4983549;28;20038;-62
2020/12/08 09:31:20;;;;;;;7.25;4.03;;;15.40;65.40;;;;;;4982735;28;20026;-61
2020/12/08 09:33:51;;;;;;;8.05;3.58;;;15.30;65.40;;;;;;4999112;28;20030;-61
2020/12/08 09:36:16;;;;;;;9.35;4.00;;;15.30;65.30;;;;;;5002499;28;20376;-62
2020/12/08 09:38:42;;;;;;;10.68;4.03;;;15.40;65.40;;;;;;4997929;28;20042;-61
2020/12/08 09:41:08;;;;;;;7.13;3.65;;;15.40;65.20;;;;;;4995045;28;20034;-61
2020/12/08 09:43:33;;;;;;;9.70;4.22;;;15.40;65.20;;;;;;5003996;28;20394;-61
2020/12/08 09:45:59;;;;;;;7.30;4.07;;;15.30;65.00;;;;;;5004317;28;20064;-63
2020/12/08 09:48:25;;;;;;;8.95;4.00;;;15.40;64.80;;;;;;5004326;28;20115;-62
2020/12/08 09:50:51;;;;;;;8.48;3.85;;;15.40;64.50;;;;;;5004212;28;20018;-61
2020/12/08 09:53:16;;;;;;;9.77;4.47;;;15.40;64.40;;;;;;5004042;28;20022;-61
2020/12/08 09:55:43;;;;;;;8.30;4.10;;;15.40;64.40;;;;;;4998351;28;20402;-62
2020/12/08 09:58:09;;;;;;;10.40;3.75;;;15.40;64.30;;;;;;5003790;28;20084;-62
2020/12/08 10:00:35;;;;;;;8.90;4.10;;;15.30;64.10;;;;;;5004184;28;20034;-61
2020/12/08 10:03:00;;;;;;;7.30;3.60;;;15.30;64.00;;;;;;4996427;28;20495;-62
2020/12/08 10:05:26;;;;;;;8.90;4.15;;;15.30;64.00;;;;;;4987334;28;20117;-62
2020/12/08 10:07:51;;;;;;;8.98;3.92;;;15.30;63.90;;;;;;4984669;28;20634;-61
2020/12/08 10:10:17;;;;;;;7.25;3.70;;;15.30;63.90;;;;;;4984410;28;20094;-61
2020/12/08 10:12:42;;;;;;;8.63;4.35;;;15.30;63.90;;;;;;4984400;28;20053;-61
2020/12/08 10:15:08;;;;;;;9.65;4.65;;;15.30;63.50;;;;;;4983354;28;20038;-61
2020/12/08 10:17:34;;;;;;;10.38;4.60;;;15.30;63.10;;;;;;4984493;28;20045;-62
2020/12/08 10:19:59;;;;;;;9.57;4.40;;;15.30;63.10;;;;;;4984368;28;20125;-62
2020/12/08 10:22:25;;;;;;;12.40;4.63;;;15.30;63.10;;;;;;4982856;28;20038;-62
2020/12/08 10:24:50;;;;;;;10.18;4.57;;;15.30;63.20;;;;;;4984020;28;20394;-62
2020/12/08 10:27:16;;;;;;;10.35;4.78;;;15.30;63.10;;;;;;4996591;28;20026;-62
2020/12/08 10:29:42;;;;;;;12.15;5.28;;;15.30;63.30;;;;;;4992498;28;20028;-62
2020/12/08 10:32:07;;;;;;;10.45;4.20;;;15.30;63.30;;;;;;4997416;28;20064;-60
2020/12/08 10:34:33;;;;;;;11.93;4.70;;;15.30;63.40;;;;;;4997489;28;20018;-63
2020/12/08 10:36:58;;;;;;;8.93;4.50;;;15.30;63.50;;;;;;5002977;28;20030;-62
2020/12/08 10:39:24;;;;;;;9.00;4.47;;;15.30;63.50;;;;;;5005817;28;20037;-62
2020/12/08 10:41:53;;;;;;;8.38;4.05;;;15.20;63.40;;;;;;5005888;28;20121;-61
2020/12/08 10:44:18;;;;;;;8.85;4.40;;;15.20;63.20;;;;;;5006415;28;20555;-62
2020/12/08 10:46:44;;;;;;;7.03;3.97;;;15.30;63.30;;;;;;5006972;28;20045;-61
2020/12/08 10:49:10;;;;;;;7.95;4.13;;;15.20;63.20;;;;;;5007135;28;20668;-62
2020/12/08 10:51:35;;;;;;;10.70;4.22;;;15.20;63.10;;;;;;5006959;28;20053;-61
2020/12/08 10:54:01;;;;;;;8.57;4.25;;;15.20;63.10;;;;;;5006866;28;20483;-62
2020/12/08 10:56:26;;;;;;;8.57;4.38;;;15.20;62.90;;;;;;5005191;28;20030;-62
2020/12/08 10:58:53;;;;;;;11.73;4.57;;;15.20;62.60;;;;;;5005608;28;20034;-62
2020/12/08 11:01:26;;;;;;;8.75;4.60;;;15.20;62.30;;;;;;5001666;28;20471;-61
2020/12/08 11:03:53;;;;;;;9.93;5.43;;;15.30;62.30;;;;;;5005810;28;20026;-62
2020/12/08 11:06:29;;;;;;;10.32;4.68;;;15.20;62.20;;;;;;5006299;28;20061;-61
2020/12/08 11:08:56;;;;;;;11.00;4.78;;;15.30;62.20;;;;;;5006669;28;20335;-61
2020/12/08 11:11:27;;;;;;;8.43;4.60;;;15.30;62.30;;;;;;5004276;28;20383;-62
2020/12/08 11:13:54;;;;;;;8.80;4.28;;;15.20;62.30;;;;;;5002864;28;20052;-61
2020/12/08 11:16:20;;;;;;;10.27;4.50;;;15.30;62.50;;;;;;5003310;28;20034;-61
2020/12/08 11:18:46;;;;;;;11.27;5.18;;;15.20;62.10;;;;;;5001750;28;20574;-61
2020/12/08 11:21:12;;;;;;;7.97;4.35;;;15.10;61.90;;;;;;4999085;28;20028;-62
2020/12/08 11:23:40;;;;;;;9.55;4.72;;;15.10;61.90;;;;;;4994205;28;20037;-62
2020/12/08 11:26:12;;;;;;;8.30;4.50;;;15.20;62.60;;;;;;4986924;28;20050;-61
2020/12/08 11:28:37;;;;;;;;;;;15.20;62.10;;;;;;4985763;28;20029;-61
2020/12/08 11:31:03;;;;;;;9.15;4.05;;;15.20;62.20;;;;;;4986828;28;19910;-62
2020/12/08 11:33:29;;;;;;;40.13;30.63;;;15.20;62.20;;;;;;4988823;28;20137;-62
2020/12/08 11:35:55;;;;;;;31.70;23.75;;;15.20;62.30;;;;;;4998848;28;20073;-62
2020/12/08 11:38:21;;;;;;;40.20;25.17;;;15.10;62.50;;;;;;5006322;28;20400;-62
2020/12/08 11:40:46;;;;;;;24.95;14.35;;;15.20;62.60;;;;;;5004152;28;20022;-62
2020/12/08 11:43:12;;;;;;;20.60;11.20;;;15.20;62.40;;;;;;5005473;28;20064;-62
2020/12/08 11:45:38;;;;;;;14.63;8.30;;;15.20;62.40;;;;;;5005250;28;20025;-61
2020/12/08 11:48:03;;;;;;;14.55;7.70;;;15.20;62.30;;;;;;5004223;28;20030;-62
2020/12/08 11:50:29;;;;;;;13.40;7.32;;;15.20;62.20;;;;;;5005842;28;20058;-62
2020/12/08 11:52:55;;;;;;;12.57;7.53;;;15.20;62.10;;;;;;5004022;28;20080;-61
2020/12/08 11:55:21;;;;;;;11.90;6.00;;;15.20;61.90;;;;;;5005770;28;20037;-61
2020/12/08 11:57:47;;;;;;;10.90;6.05;;;15.20;61.90;;;;;;5005510;28;20056;-61
2020/12/08 12:00:12;;;;;;;12.38;6.20;;;15.20;61.80;;;;;;5005092;28;20026;-60
2020/12/08 12:02:38;;;;;;;11.45;6.43;;;15.20;61.80;;;;;;5003334;28;20037;-62
2020/12/08 12:05:04;;;;;;;13.75;6.13;;;15.20;61.60;;;;;;5003014;28;20064;-62
2020/12/08 12:07:30;;;;;;;10.50;5.30;;;15.20;61.60;;;;;;5003473;28;20088;-61
2020/12/08 12:09:55;;;;;;;13.13;5.68;;;15.20;61.60;;;;;;5004366;28;20038;-61
2020/12/08 12:12:21;;;;;;;14.48;6.00;;;15.20;61.60;;;;;;5003816;28;20036;-62
2020/12/08 12:14:46;;;;;;;15.43;7.60;;;15.20;61.70;;;;;;5003720;28;20526;-62
2020/12/08 12:17:12;;;;;;;14.65;7.05;;;15.20;61.70;;;;;;5002313;28;20022;-62
2020/12/08 12:19:38;;;;;;;12.52;6.10;;;15.20;61.50;;;;;;5005391;28;20109;-62
2020/12/08 12:22:03;;;;;;;10.05;5.57;;;15.20;61.30;;;;;;5004652;28;20399;-61
2020/12/08 12:24:29;;;;;;;11.27;5.63;;;15.20;61.20;;;;;;5003055;28;20505;-62
2020/12/08 12:26:55;;;;;;;9.80;5.25;;;15.20;61.90;;;;;;5004766;28;20234;-61
2020/12/08 12:29:20;;;;;;;11.55;5.07;;;15.30;61.40;;;;;;5005099;28;20052;-62
2020/12/08 12:31:48;;;;;;;8.82;4.70;;;15.40;61.40;;;;;;5004917;28;20105;-62
2020/12/08 12:34:14;;;;;;;10.68;5.20;;;15.40;61.20;;;;;;5001859;28;20072;-62
2020/12/08 12:36:41;;;;;;;9.48;5.00;;;15.50;60.90;;;;;;5004782;28;20105;-62
2020/12/08 12:39:07;;;;;;;9.60;4.97;;;15.50;61.30;;;;;;5005271;28;20499;-62
2020/12/08 12:41:33;;;;;;;8.45;4.32;;;15.60;60.70;;;;;;5004745;28;20088;-62